METAR Data
IDs: Format: Raw Decoded Include TAF

Data at: 0205 UTC 01 Mar 2021

KRNP 010155Z AUTO 26014G21KT 10SM OVC022 05/02 A2968 RMK AO2 T00500021